createdAt,value
2024-05-09T00:01:48.814Z,9.40
2024-05-09T00:04:37.316Z,9.67
2024-05-09T00:07:22.600Z,9.25
2024-05-09T00:10:11.834Z,9.99
2024-05-09T00:13:03.596Z,10.39
2024-05-09T00:15:50.940Z,10.26
2024-05-09T00:18:36.275Z,10.17
2024-05-09T00:21:21.502Z,10.30
2024-05-09T00:24:06.769Z,10.44
2024-05-09T00:26:54.661Z,10.14
2024-05-09T00:29:42.900Z,10.52
2024-05-09T00:32:28.369Z,10.55
2024-05-09T00:35:13.581Z,10.68
2024-05-09T00:37:58.812Z,10.81
2024-05-09T00:40:53.501Z,11.24
2024-05-09T00:43:39.156Z,11.74
2024-05-09T00:46:28.068Z,11.77
2024-05-09T00:49:23.899Z,12.05
2024-05-09T00:52:09.621Z,12.66
2024-05-09T00:54:57.738Z,11.86
2024-05-09T00:57:42.908Z,12.89
2024-05-09T01:00:35.948Z,13.01
2024-05-09T01:03:25.264Z,13.02
2024-05-09T01:06:12.772Z,13.41
2024-05-09T01:08:58.169Z,13.28
2024-05-09T01:11:46.772Z,13.33
2024-05-09T01:14:37.331Z,13.57
2024-05-09T01:17:39.252Z,13.26
2024-05-09T01:20:39.660Z,13.01
2024-05-09T01:23:32.461Z,11.75
2024-05-09T01:26:20.375Z,10.93
2024-05-09T01:29:09.216Z,10.69
2024-05-09T01:31:55.107Z,11.11
2024-05-09T01:34:40.673Z,11.50
2024-05-09T01:37:26.272Z,11.28
2024-05-09T01:40:22.106Z,11.67
2024-05-09T01:43:11.643Z,12.06
2024-05-09T01:45:57.254Z,11.37
2024-05-09T01:48:42.607Z,11.69
2024-05-09T01:51:28.137Z,12.13
2024-05-09T01:54:14.588Z,11.53
2024-05-09T01:57:00.181Z,12.50
2024-05-09T01:59:45.595Z,12.97
2024-05-09T02:02:30.599Z,12.52
2024-05-09T02:05:16.150Z,12.70
2024-05-09T02:08:04.806Z,12.64
2024-05-09T02:10:50.601Z,12.59
2024-05-09T02:13:36.260Z,12.15
2024-05-09T02:16:21.411Z,12.12
2024-05-09T02:19:10.034Z,11.91
2024-05-09T02:21:55.612Z,12.34
2024-05-09T02:24:40.834Z,12.87
2024-05-09T02:27:26.248Z,12.96
2024-05-09T02:30:18.801Z,12.77
2024-05-09T02:33:13.222Z,12.64
2024-05-09T02:36:02.616Z,12.81
2024-05-09T02:38:49.900Z,12.51
2024-05-09T02:41:38.230Z,13.44
2024-05-09T02:44:23.721Z,14.24
2024-05-09T02:47:15.484Z,13.58
2024-05-09T02:50:00.910Z,14.14
2024-05-09T02:52:46.378Z,14.41
2024-05-09T02:55:31.910Z,14.64
2024-05-09T02:58:17.066Z,14.18
2024-05-09T03:01:03.487Z,14.04
2024-05-09T03:03:49.164Z,14.11
2024-05-09T03:06:34.130Z,14.30
2024-05-09T03:09:21.476Z,14.47
2024-05-09T03:12:07.038Z,14.90
2024-05-09T03:14:56.517Z,14.56
2024-05-09T03:17:42.150Z,14.98
2024-05-09T03:20:33.296Z,15.15
2024-05-09T03:23:20.479Z,15.43
2024-05-09T03:26:05.747Z,15.42
2024-05-09T03:28:54.448Z,15.58
2024-05-09T03:31:42.951Z,15.56
2024-05-09T03:34:28.306Z,16.03
2024-05-09T03:37:13.671Z,15.29
2024-05-09T03:40:09.134Z,14.88
2024-05-09T03:43:00.478Z,13.91
2024-05-09T03:45:46.150Z,13.22
2024-05-09T03:48:31.349Z,13.34
2024-05-09T03:51:16.728Z,13.35
2024-05-09T03:54:03.833Z,14.17
2024-05-09T03:56:56.602Z,14.19
2024-05-09T03:59:49.755Z,13.76
2024-05-09T04:02:38.053Z,13.19
2024-05-09T04:08:22.456Z,14.31
2024-05-09T04:11:14.120Z,13.90
2024-05-09T04:13:59.312Z,13.87
2024-05-09T04:16:47.674Z,13.56
2024-05-09T04:19:33.027Z,14.46
2024-05-09T04:22:18.145Z,14.53
2024-05-09T04:25:07.954Z,14.79
2024-05-09T04:27:53.705Z,14.34
2024-05-09T04:30:41.112Z,15.61
2024-05-09T04:33:28.722Z,15.24
2024-05-09T04:36:16.891Z,14.48
2024-05-09T04:39:03.297Z,14.63
2024-05-09T04:41:49.831Z,14.11
2024-05-09T04:44:35.094Z,14.41
2024-05-09T04:47:20.399Z,14.05
2024-05-09T04:50:05.753Z,14.36
2024-05-09T04:52:51.073Z,14.08
2024-05-09T04:55:36.517Z,13.77
2024-05-09T04:58:21.614Z,13.56
2024-05-09T05:01:11.182Z,13.10
2024-05-09T05:04:04.811Z,13.08
2024-05-09T05:06:50.087Z,13.50
2024-05-09T05:09:36.608Z,13.07
2024-05-09T05:12:22.078Z,13.33
2024-05-09T05:15:07.312Z,13.74
2024-05-09T05:17:52.488Z,13.15
2024-05-09T05:20:37.507Z,13.19
2024-05-09T05:23:22.994Z,13.17
2024-05-09T05:26:08.431Z,13.09
2024-05-09T05:28:53.778Z,13.33
2024-05-09T05:31:42.188Z,13.61
2024-05-09T05:34:27.439Z,13.38
2024-05-09T05:37:13.827Z,13.32
2024-05-09T05:39:59.184Z,12.90
2024-05-09T05:42:44.517Z,13.48
2024-05-09T05:45:31.270Z,13.38
2024-05-09T05:48:17.209Z,12.98
2024-05-09T05:51:04.610Z,13.16
2024-05-09T05:53:50.348Z,13.27
2024-05-09T05:56:35.729Z,12.89
2024-05-09T05:59:21.830Z,12.56
2024-05-09T06:02:07.094Z,13.21
2024-05-09T06:04:52.298Z,13.36
2024-05-09T06:07:37.918Z,13.52
2024-05-09T06:10:29.633Z,13.25
2024-05-09T06:13:20.233Z,13.35
2024-05-09T06:16:05.534Z,14.22
2024-05-09T06:18:55.528Z,14.24
2024-05-09T06:21:45.996Z,14.45
2024-05-09T06:24:31.380Z,15.08
2024-05-09T06:27:19.993Z,17.69
2024-05-09T06:30:08.232Z,14.74
2024-05-09T06:33:04.750Z,14.64
2024-05-09T06:35:50.461Z,14.23
2024-05-09T06:38:37.404Z,14.94
2024-05-09T06:41:22.868Z,15.03
2024-05-09T06:44:08.195Z,15.05
2024-05-09T06:46:54.622Z,15.77
2024-05-09T06:49:44.255Z,14.94
2024-05-09T06:52:31.422Z,15.69
2024-05-09T06:55:16.859Z,15.16
2024-05-09T06:58:02.197Z,15.23
2024-05-09T07:00:47.693Z,15.59
2024-05-09T07:03:32.836Z,15.25
2024-05-09T07:06:20.370Z,15.31
2024-05-09T07:09:05.885Z,14.71
2024-05-09T07:11:53.612Z,14.37
2024-05-09T07:14:38.851Z,13.68
2024-05-09T07:17:31.515Z,13.88
2024-05-09T07:20:23.664Z,13.47
2024-05-09T07:23:20.140Z,13.37
2024-05-09T07:26:05.465Z,13.69
2024-05-09T07:28:50.897Z,13.95
2024-05-09T07:31:38.178Z,13.39
2024-05-09T07:34:24.294Z,13.48
2024-05-09T07:37:10.443Z,13.44
2024-05-09T07:39:57.389Z,13.28
2024-05-09T07:42:43.951Z,13.61
2024-05-09T07:45:47.562Z,12.51
2024-05-09T07:53:14.224Z,12.26
2024-05-09T07:54:44.307Z,13.79
2024-05-09T07:57:29.462Z,11.40
2024-05-09T08:00:20.368Z,15.55
2024-05-09T08:06:17.885Z,11.35
2024-05-09T08:09:21.367Z,11.33
2024-05-09T08:15:12.723Z,10.96
2024-05-09T08:18:01.386Z,11.00
2024-05-09T08:20:57.015Z,10.38
2024-05-09T08:23:49.318Z,10.54
2024-05-09T08:26:47.127Z,11.49
2024-05-09T08:32:35.943Z,10.34
2024-05-09T08:38:40.502Z,10.58
2024-05-09T08:44:48.142Z,9.10
2024-05-09T08:50:38.553Z,8.67
2024-05-09T08:53:25.385Z,15.09
2024-05-09T08:56:14.872Z,10.24
2024-05-09T08:59:00.726Z,9.64
2024-05-09T09:04:48.738Z,11.26
2024-05-09T09:10:43.081Z,14.18
2024-05-09T09:13:40.355Z,12.07
2024-05-09T09:16:25.800Z,11.06
2024-05-09T09:22:26.072Z,18.54
2024-05-09T09:31:28.773Z,11.82
2024-05-09T09:34:26.818Z,12.01
2024-05-09T09:37:12.074Z,12.38
2024-05-09T09:40:32.073Z,11.24
2024-05-09T09:43:12.055Z,11.99
2024-05-09T09:45:57.643Z,11.68
2024-05-09T09:48:43.419Z,11.89
2024-05-09T09:51:54.575Z,13.98
2024-05-09T09:54:49.788Z,27.68
2024-05-09T09:57:56.822Z,12.80
2024-05-09T10:00:49.910Z,12.61
2024-05-09T10:03:39.345Z,18.57
2024-05-09T10:06:38.443Z,15.79
2024-05-09T10:22:12.561Z,18.40
2024-05-09T10:25:23.305Z,12.32
2024-05-09T10:29:15.045Z,15.47
2024-05-09T10:31:27.706Z,11.81
2024-05-09T10:37:23.072Z,11.04
2024-05-09T10:40:17.259Z,15.15
2024-05-09T10:46:06.918Z,11.72
2024-05-09T10:48:52.404Z,12.56
2024-05-09T10:51:38.615Z,11.23
2024-05-09T10:54:23.899Z,9.94
2024-05-09T10:57:09.123Z,11.00
2024-05-09T10:59:54.468Z,11.10
2024-05-09T11:02:39.947Z,11.38
2024-05-09T11:05:25.474Z,20.41
2024-05-09T11:08:10.751Z,14.04
2024-05-09T11:10:56.955Z,10.82
2024-05-09T11:13:42.370Z,12.21
2024-05-09T11:16:27.765Z,10.68
2024-05-09T11:19:13.113Z,10.09
2024-05-09T11:21:58.846Z,10.46
2024-05-09T11:24:44.081Z,10.55
2024-05-09T11:27:29.600Z,10.18
2024-05-09T11:30:24.175Z,10.26
2024-05-09T11:33:15.224Z,9.92
2024-05-09T11:36:03.543Z,11.79
2024-05-09T11:38:48.558Z,11.54
2024-05-09T11:41:33.857Z,9.30
2024-05-09T11:44:19.052Z,9.26
2024-05-09T11:47:04.335Z,12.66
2024-05-09T11:49:50.095Z,10.26
2024-05-09T11:52:54.095Z,9.16
2024-05-09T11:58:44.074Z,8.06
2024-05-09T12:01:32.527Z,8.71
2024-05-09T12:04:18.379Z,13.41
2024-05-09T12:07:04.311Z,11.77
2024-05-09T12:09:50.758Z,9.27
2024-05-09T12:12:38.932Z,8.69
2024-05-09T12:15:27.589Z,8.28
2024-05-09T12:18:20.922Z,7.39
2024-05-09T12:21:07.676Z,7.87
2024-05-09T12:23:56.977Z,11.61
2024-05-09T12:26:42.148Z,11.19
2024-05-09T12:29:30.822Z,10.39
2024-05-09T12:32:20.463Z,7.96
2024-05-09T12:35:07.780Z,8.89
2024-05-09T12:37:54.455Z,7.48
2024-05-09T12:40:43.702Z,7.56
2024-05-09T12:46:27.893Z,4.86
2024-05-09T12:49:22.748Z,4.69
2024-05-09T12:52:25.610Z,3.89
2024-05-09T12:55:22.891Z,4.06
2024-05-09T12:58:18.592Z,4.21
2024-05-09T13:01:03.906Z,4.31
2024-05-09T13:03:49.493Z,4.03
2024-05-09T13:06:37.920Z,3.87
2024-05-09T13:09:29.473Z,5.16
2024-05-09T13:12:17.723Z,5.57
2024-05-09T13:15:13.019Z,7.04
2024-05-09T13:18:02.943Z,5.74
2024-05-09T13:20:51.015Z,4.00
2024-05-09T13:26:46.266Z,4.63
2024-05-09T13:32:48.575Z,3.51
2024-05-09T13:35:34.030Z,5.20
2024-05-09T13:38:29.894Z,3.74
2024-05-09T13:44:30.885Z,4.16
2024-05-09T13:50:58.671Z,5.48
2024-05-09T13:53:36.803Z,4.78
2024-05-09T14:05:39.580Z,6.99
2024-05-09T14:08:34.965Z,4.17
2024-05-09T14:11:32.078Z,9.81
2024-05-09T14:14:28.647Z,3.27
2024-05-09T14:17:24.726Z,5.69
2024-05-09T14:23:24.382Z,4.48
2024-05-09T14:26:13.145Z,3.92
2024-05-09T14:32:15.789Z,3.34
2024-05-09T14:35:14.009Z,3.78
2024-05-09T14:38:17.476Z,4.30
2024-05-09T14:41:08.552Z,4.57
2024-05-09T14:50:19.621Z,3.60
2024-05-09T14:53:52.150Z,4.03
2024-05-09T14:59:53.785Z,3.72
2024-05-09T15:06:09.326Z,3.14
2024-05-09T15:08:56.317Z,3.57
2024-05-09T15:11:53.302Z,3.36
2024-05-09T15:15:09.151Z,3.06
2024-05-09T15:18:00.254Z,2.79
2024-05-09T15:20:48.557Z,4.65
2024-05-09T15:23:48.603Z,3.24
2024-05-09T15:26:43.463Z,3.10
2024-05-09T15:29:31.475Z,3.66
2024-05-09T15:41:39.054Z,3.05
2024-05-09T15:44:31.053Z,3.10
2024-05-09T15:47:23.902Z,3.00
2024-05-09T15:50:17.099Z,3.33
2024-05-09T15:53:08.221Z,3.24
2024-05-09T15:59:00.973Z,3.38
2024-05-09T16:01:46.268Z,3.61
2024-05-09T16:04:35.339Z,3.27
2024-05-09T16:07:24.725Z,3.27
2024-05-09T16:10:13.199Z,7.30
2024-05-09T16:13:04.888Z,3.75
2024-05-09T16:15:50.419Z,3.24
2024-05-09T16:18:37.690Z,5.03
2024-05-09T16:21:34.464Z,3.20
2024-05-09T16:24:19.992Z,3.04
2024-05-09T16:27:05.363Z,3.10
2024-05-09T16:29:50.731Z,3.21
2024-05-09T16:32:36.223Z,3.34
2024-05-09T16:35:21.267Z,3.47
2024-05-09T16:38:06.549Z,5.02
2024-05-09T16:40:59.562Z,4.04
2024-05-09T16:43:44.891Z,3.33
2024-05-09T16:46:30.410Z,9.94
2024-05-09T16:49:16.011Z,4.17
2024-05-09T16:52:01.632Z,3.27
2024-05-09T16:54:46.860Z,4.06
2024-05-09T16:57:31.893Z,3.67
2024-05-09T17:00:25.589Z,6.03
2024-05-09T17:03:17.382Z,3.94
2024-05-09T17:06:02.997Z,3.48
2024-05-09T17:08:48.603Z,3.35
2024-05-09T17:11:41.384Z,3.62
2024-05-09T17:14:29.225Z,7.41
2024-05-09T17:17:14.893Z,3.68
2024-05-09T17:23:00.522Z,3.36
2024-05-09T17:32:00.991Z,3.42
2024-05-09T17:34:46.356Z,3.41
2024-05-09T17:37:33.137Z,4.92
2024-05-09T17:40:27.903Z,4.46
2024-05-09T17:43:19.130Z,3.20
2024-05-09T17:46:13.674Z,3.83
2024-05-09T17:49:01.342Z,3.85
2024-05-09T17:51:47.426Z,3.22
2024-05-09T17:54:34.500Z,3.66
2024-05-09T17:57:20.012Z,3.32
2024-05-09T18:00:17.441Z,3.34
2024-05-09T18:03:06.738Z,3.43
2024-05-09T18:05:57.854Z,3.89
2024-05-09T18:08:43.323Z,3.97
2024-05-09T18:11:31.806Z,3.92
2024-05-09T18:14:17.058Z,6.57
2024-05-09T18:17:02.211Z,3.93
2024-05-09T18:19:47.469Z,4.33
2024-05-09T18:22:35.456Z,6.57
2024-05-09T18:25:20.718Z,4.09
2024-05-09T18:28:13.573Z,3.94
2024-05-09T18:31:02.809Z,5.25
2024-05-09T18:33:51.223Z,5.48
2024-05-09T18:36:37.178Z,5.70
2024-05-09T18:39:25.674Z,6.70
2024-05-09T18:42:10.684Z,5.43
2024-05-09T18:45:00.431Z,4.73
2024-05-09T18:47:46.069Z,15.26
2024-05-09T18:50:37.292Z,16.47
2024-05-09T18:53:25.143Z,6.99
2024-05-09T18:56:10.631Z,7.54
2024-05-09T18:58:55.775Z,6.56
2024-05-09T19:01:44.153Z,11.39
2024-05-09T19:04:29.421Z,8.50
2024-05-09T19:07:15.078Z,7.92
2024-05-09T19:10:00.491Z,6.45
2024-05-09T19:12:57.223Z,5.33
2024-05-09T19:15:43.389Z,4.98
2024-05-09T19:18:29.416Z,16.03
2024-05-09T19:21:14.935Z,9.32
2024-05-09T19:24:01.626Z,12.98
2024-05-09T19:26:49.267Z,10.81
2024-05-09T19:29:37.869Z,5.62
2024-05-09T19:32:27.715Z,6.06
2024-05-09T19:35:13.152Z,5.82
2024-05-09T19:38:00.911Z,5.98
2024-05-09T19:40:46.621Z,5.88
2024-05-09T19:43:34.601Z,5.66
2024-05-09T19:46:21.087Z,4.29
2024-05-09T19:49:06.920Z,4.48
2024-05-09T19:51:52.610Z,5.72
2024-05-09T19:54:43.300Z,12.61
2024-05-09T19:57:28.530Z,12.76
2024-05-09T20:00:22.236Z,4.86
2024-05-09T20:03:17.989Z,18.84
2024-05-09T20:06:09.659Z,5.73
2024-05-09T20:08:56.508Z,5.45
2024-05-09T20:11:50.376Z,8.10
2024-05-09T20:14:39.594Z,25.73
2024-05-09T20:17:25.103Z,7.35
2024-05-09T20:20:20.126Z,6.44
2024-05-09T20:23:15.614Z,4.62
2024-05-09T20:26:00.910Z,4.47
2024-05-09T20:28:51.496Z,4.83
2024-05-09T20:31:38.741Z,5.68
2024-05-09T20:34:25.410Z,8.05
2024-05-09T20:37:18.158Z,6.89
2024-05-09T20:40:05.168Z,4.46
2024-05-09T20:42:53.330Z,4.59
2024-05-09T20:45:39.960Z,4.57
2024-05-09T20:48:25.970Z,4.00
2024-05-09T20:51:12.511Z,4.24
2024-05-09T20:54:00.539Z,3.97
2024-05-09T20:56:45.802Z,4.71
2024-05-09T20:59:32.416Z,3.96
2024-05-09T21:02:18.290Z,3.93
2024-05-09T21:05:03.716Z,4.34
2024-05-09T21:07:48.821Z,3.95
2024-05-09T21:10:34.795Z,4.18
2024-05-09T21:13:25.948Z,4.09
2024-05-09T21:16:11.853Z,4.20
2024-05-09T21:18:57.421Z,7.20
2024-05-09T21:21:42.643Z,4.48
2024-05-09T21:24:27.923Z,4.91
2024-05-09T21:27:13.515Z,6.90
2024-05-09T21:29:58.893Z,4.99
2024-05-09T21:32:44.567Z,5.16
2024-05-09T21:35:30.027Z,6.66
2024-05-09T21:38:15.029Z,27.16
2024-05-09T21:41:02.626Z,31.78
2024-05-09T21:43:48.199Z,17.69
2024-05-09T21:46:35.883Z,6.55
2024-05-09T21:49:23.705Z,5.23
2024-05-09T21:52:08.885Z,4.37
2024-05-09T21:54:54.013Z,4.40
2024-05-09T21:57:45.745Z,4.37
2024-05-09T22:00:38.225Z,4.86
2024-05-09T22:03:25.135Z,4.77
2024-05-09T22:06:11.788Z,4.60
2024-05-09T22:08:57.233Z,4.66
2024-05-09T22:11:48.129Z,4.54
2024-05-09T22:14:41.247Z,5.01
2024-05-09T22:17:39.527Z,4.93
2024-05-09T22:20:36.548Z,4.37
2024-05-09T22:23:24.543Z,4.84
2024-05-09T22:26:09.839Z,4.69
2024-05-09T22:28:59.453Z,4.96
2024-05-09T22:31:46.305Z,4.67
2024-05-09T22:34:39.456Z,4.81
2024-05-09T22:40:33.047Z,7.69
2024-05-09T22:43:27.925Z,5.55
2024-05-09T22:46:13.205Z,5.10
2024-05-09T22:49:00.729Z,5.26
2024-05-09T22:51:48.932Z,4.75
2024-05-09T22:54:34.187Z,5.05
2024-05-09T22:57:20.769Z,4.77
2024-05-09T23:00:12.402Z,5.11
2024-05-09T23:02:57.459Z,4.95
2024-05-09T23:05:42.680Z,5.35
2024-05-09T23:08:28.585Z,5.04
2024-05-09T23:11:14.291Z,5.00
2024-05-09T23:13:59.771Z,5.42
2024-05-09T23:16:45.554Z,5.49
2024-05-09T23:19:31.296Z,5.07
2024-05-09T23:22:16.815Z,5.30
2024-05-09T23:25:02.004Z,5.12
2024-05-09T23:27:47.826Z,5.67
2024-05-09T23:30:37.868Z,5.62
2024-05-09T23:33:29.919Z,5.41
2024-05-09T23:36:17.628Z,5.90
2024-05-09T23:39:05.823Z,5.75
2024-05-09T23:41:51.551Z,5.51
2024-05-09T23:44:37.568Z,6.36
2024-05-09T23:47:22.920Z,6.62
2024-05-09T23:50:20.272Z,6.54
2024-05-09T23:53:10.066Z,5.27
2024-05-09T23:55:56.250Z,5.36
2024-05-09T23:58:44.177Z,5.61
